Time;durP1;ratioP1;P1;durP2;ratioP2;P2;SDS_P1;SDS_P2;PMS_P1;PMS_P2;Temp;Humidity;BMP_temperature;BMP_pressure;BME280_temperature;BME280_humidity;BME280_pressure;Samples;Min_cycle;Max_cycle;Signal;HPM_P1;HPM_P2
2023/09/28 00:01:46;;;;;;;10.20;7.70;;;;;;;15.95;100.00;101340.88;4968008;28;20210;-74
2023/09/28 00:04:11;;;;;;;9.17;7.20;;;;;;;17.09;100.00;101500.31;4969780;28;20928;-74
2023/09/28 00:06:37;;;;;;;8.37;7.13;;;;;;;17.26;100.00;101509.50;4965627;28;20472;-75
2023/09/28 00:09:03;;;;;;;9.17;6.60;;;;;;;17.25;100.00;101488.06;4968203;28;20198;-75
2023/09/28 00:11:28;;;;;;;8.27;7.37;;;;;;;16.85;100.00;101427.00;4963114;28;20254;-75
2023/09/28 00:13:54;;;;;;;7.60;6.63;;;;;;;16.60;100.00;101381.00;4966376;28;20512;-75
2023/09/28 00:16:19;;;;;;;8.80;6.43;;;;;;;17.14;100.00;101447.09;4965903;28;20652;-74
2023/09/28 00:18:46;;;;;;;7.77;6.63;;;;;;;17.15;100.00;101420.81;4979474;28;20276;-75
2023/09/28 00:21:11;;;;;;;7.67;6.10;;;;;;;16.51;100.00;101295.72;4966343;28;20190;-75
2023/09/28 00:23:36;;;;;;;9.93;6.13;;;;;;;16.89;100.00;101356.94;4964913;28;21444;-74
2023/09/28 00:26:02;;;;;;;10.53;6.50;;;;;;;17.26;100.00;101414.63;4963284;28;20567;-74
2023/09/28 00:28:28;;;;;;;8.20;6.87;;;;;;;17.29;100.00;101392.47;4965815;28;20190;-76
2023/09/28 00:30:54;;;;;;;6.60;5.60;;;;;;;16.65;100.00;101312.63;4965737;28;20229;-75
2023/09/28 00:33:19;;;;;;;5.67;4.40;;;;;;;16.84;100.00;101281.78;4967436;28;20473;-74
2023/09/28 00:35:44;;;;;;;6.80;5.70;;;;;;;16.90;100.00;101326.91;4964669;28;20281;-74
2023/09/28 00:38:10;;;;;;;7.37;6.50;;;;;;;17.32;100.00;101385.75;4964203;28;20159;-75
2023/09/28 00:40:39;;;;;;;7.33;5.07;;;;;;;17.32;100.00;101386.59;4964442;28;20194;-75
2023/09/28 00:43:05;;;;;;;6.60;4.83;;;;;;;17.28;100.00;101371.03;4961815;28;20221;-75
2023/09/28 00:45:31;;;;;;;9.03;6.27;;;;;;;16.96;100.00;101343.31;4967153;28;20813;-75
2023/09/28 00:48:02;;;;;;;8.50;6.27;;;;;;;17.29;100.00;101400.59;4964476;28;20202;-75
2023/09/28 00:50:31;;;;;;;6.33;5.10;;;;;;;16.54;100.00;101303.38;4966878;28;20221;-74
2023/09/28 00:53:02;;;;;;;8.73;6.20;;;;;;;16.48;100.00;101285.31;4965523;28;20474;-75
2023/09/28 00:55:29;;;;;;;7.83;5.83;;;;;;;16.44;100.00;101271.44;4981027;28;20449;-75
2023/09/28 00:58:00;;;;;;;7.80;4.93;;;;;;;17.19;100.00;101384.06;4963286;28;20454;-74
2023/09/28 01:00:27;;;;;;;7.73;5.20;;;;;;;16.60;100.00;101309.75;4966874;28;20478;-74
2023/09/28 01:02:55;;;;;;;9.00;6.00;;;;;;;17.28;100.00;101430.66;4964084;28;20497;-75
2023/09/28 01:05:22;;;;;;;6.10;5.10;;;;;;;16.56;100.00;101327.53;4964002;28;20434;-74
2023/09/28 01:07:48;;;;;;;6.23;5.17;;;;;;;16.33;100.00;101272.19;4964707;28;20437;-74
2023/09/28 01:10:20;;;;;;;7.43;6.03;;;;;;;16.48;100.00;101309.69;4965133;28;20482;-74
2023/09/28 01:12:47;;;;;;;8.70;5.60;;;;;;;17.22;100.00;101432.41;4963750;28;20469;-75
2023/09/28 01:15:13;;;;;;;6.60;5.50;;;;;;;17.13;100.00;101417.53;4967886;28;20495;-74
2023/09/28 01:17:39;;;;;;;7.20;5.47;;;;;;;16.60;100.00;101351.22;4967972;28;20928;-74
2023/09/28 01:20:35;;;;;;;6.17;4.47;;;;;;;17.35;100.00;101469.34;4962277;28;20190;-74
2023/09/28 01:23:00;;;;;;;7.17;4.87;;;;;;;17.38;100.00;101499.53;4962794;28;20457;-75
2023/09/28 01:25:26;;;;;;;7.00;4.83;;;;;;;16.67;100.00;101421.56;4955268;28;20914;-74
2023/09/28 01:27:52;;;;;;;6.90;4.97;;;;;;;17.48;100.00;101587.69;4967923;28;20645;-75
2023/09/28 01:30:18;;;;;;;6.30;5.07;;;;;;;16.33;100.00;101461.69;4967039;28;20221;-75
2023/09/28 01:32:43;;;;;;;5.70;4.83;;;;;;;16.85;100.00;101618.56;4966551;28;20458;-74
2023/09/28 01:35:11;;;;;;;6.40;4.80;;;;;;;17.50;100.00;101734.75;4967545;28;20182;-74
2023/09/28 01:37:48;;;;;;;7.07;5.73;;;;;;;16.92;100.00;101670.81;4968070;28;20187;-74
2023/09/28 01:40:14;;;;;;;6.87;4.73;;;;;;;17.31;100.00;101764.53;4965602;28;20477;-75
2023/09/28 01:42:40;;;;;;;9.20;5.73;;;;;;;17.32;100.00;101766.19;4967841;28;20912;-75
2023/09/28 01:45:06;;;;;;;10.53;5.70;;;;;;;17.19;100.00;101757.34;4965936;28;20190;-75
2023/09/28 01:47:31;;;;;;;5.77;4.60;;;;;;;17.42;100.00;101792.00;4968598;28;20285;-75
2023/09/28 01:49:58;;;;;;;7.80;5.20;;;;;;;17.38;100.00;101789.72;4964173;28;20525;-75
2023/09/28 01:52:24;;;;;;;8.17;5.27;;;;;;;16.98;100.00;101728.72;4966247;28;20214;-74
2023/09/28 01:54:49;;;;;;;6.70;5.30;;;;;;;17.59;100.00;101837.34;4964328;28;20995;-75
2023/09/28 01:57:14;;;;;;;7.80;5.57;;;;;;;17.57;100.00;101855.72;4963643;28;20544;-75
2023/09/28 01:59:40;;;;;;;7.80;5.57;;;;;;;17.43;100.00;101862.28;4961743;28;20267;-74
2023/09/28 02:02:05;;;;;;;7.47;5.50;;;;;;;17.47;100.00;101882.47;4966217;28;20676;-75
2023/09/28 02:04:31;;;;;;;8.40;6.20;;;;;;;17.31;100.00;101869.47;4966436;28;20221;-74
2023/09/28 02:06:56;;;;;;;8.07;5.93;;;;;;;17.72;100.00;101936.78;4964615;28;20245;-75
2023/09/28 02:09:23;;;;;;;10.60;5.83;;;;;;;17.04;100.00;101834.38;4966982;28;20534;-75
2023/09/28 02:11:49;;;;;;;6.70;5.50;;;;;;;16.99;100.00;101842.34;4966456;28;20210;-75
2023/09/28 02:14:14;;;;;;;7.47;5.77;;;;;;;17.69;100.00;101920.94;4981379;28;20457;-74
2023/09/28 02:16:40;;;;;;;7.67;5.47;;;;;;;17.55;100.00;101873.25;4980059;28;20221;-75
2023/09/28 02:19:05;;;;;;;7.40;5.13;;;;;;;16.96;100.00;101779.63;4962422;28;20287;-75
2023/09/28 02:21:31;;;;;;;8.10;6.00;;;;;;;17.63;100.00;101870.28;4964509;28;20213;-74
2023/09/28 02:23:58;;;;;;;7.80;5.87;;;;;;;17.01;100.00;101769.78;4965730;28;20248;-75
2023/09/28 02:26:25;;;;;;;9.03;5.50;;;;;;;17.46;100.00;101817.63;4965547;28;20201;-74
2023/09/28 02:28:50;;;;;;;7.33;5.33;;;;;;;17.17;100.00;101742.13;4965590;28;20460;-74
2023/09/28 02:31:15;;;;;;;7.93;5.40;;;;;;;17.41;100.00;101761.31;4966379;28;20983;-74
2023/09/28 02:33:41;;;;;;;9.13;6.50;;;;;;;17.21;100.00;101718.09;4964832;28;20279;-74
2023/09/28 02:36:08;;;;;;;8.07;6.03;;;;;;;17.42;100.00;101719.59;4962023;28;20202;-75
2023/09/28 02:38:33;;;;;;;6.90;6.07;;;;;;;16.62;100.00;101611.00;4965167;28;20201;-75
2023/09/28 02:40:59;;;;;;;7.50;5.50;;;;;;;16.62;100.00;101605.59;4964948;28;20454;-75
2023/09/28 02:43:24;;;;;;;10.50;6.97;;;;;;;17.48;100.00;101747.72;4964242;28;20276;-75
2023/09/28 02:45:50;;;;;;;10.07;6.63;;;;;;;17.52;100.00;101773.34;4964654;28;20265;-74
2023/09/28 02:48:16;;;;;;;9.50;6.27;;;;;;;17.39;100.00;101758.84;4967282;28;20204;-75
2023/09/28 02:50:42;;;;;;;7.97;6.10;;;;;;;16.60;100.00;101616.63;4978752;28;20284;-74
2023/09/28 02:53:08;;;;;;;8.53;6.50;;;;;;;17.08;100.00;101683.81;4977776;28;20465;-74
2023/09/28 02:55:33;;;;;;;9.70;6.30;;;;;;;16.97;100.00;101656.59;4963474;28;20441;-75
2023/09/28 02:57:59;;;;;;;8.00;5.80;;;;;;;17.20;100.00;101675.78;4963801;28;20198;-75
2023/09/28 03:00:32;;;;;;;9.60;6.23;;;;;;;17.27;100.00;101673.84;4964582;28;20186;-74
2023/09/28 03:03:05;;;;;;;7.70;5.80;;;;;;;17.20;100.00;101655.97;4962996;28;20377;-74
2023/09/28 03:05:32;;;;;;;7.80;6.30;;;;;;;17.01;100.00;101641.53;4977811;28;21017;-74
2023/09/28 03:07:58;;;;;;;8.30;5.27;;;;;;;17.24;100.00;101666.16;4961319;28;20495;-74
2023/09/28 03:10:24;;;;;;;6.37;5.10;;;;;;;16.56;100.00;101574.78;4964038;28;20908;-74
2023/09/28 03:12:51;;;;;;;6.67;5.40;;;;;;;17.07;100.00;101652.34;4983756;28;20469;-74
2023/09/28 03:15:17;;;;;;;8.20;6.33;;;;;;;17.33;100.00;101694.66;4966619;28;20445;-74
2023/09/28 03:17:43;;;;;;;8.37;5.80;;;;;;;16.88;100.00;101645.22;4967344;28;20477;-74
2023/09/28 03:20:17;;;;;;;9.27;5.90;;;;;;;17.31;100.00;101750.16;4969752;28;20445;-74
2023/09/28 03:22:44;;;;;;;7.93;6.10;;;;;;;17.28;100.00;101773.13;4965401;28;20979;-74
2023/09/28 03:25:16;;;;;;;11.60;5.50;;;;;;;17.20;100.00;101802.38;4967046;28;20446;-75
2023/09/28 03:27:42;;;;;;;7.33;5.10;;;;;;;17.44;100.00;101876.66;4963923;28;21153;-74
2023/09/28 03:30:10;;;;;;;7.73;4.77;;;;;;;16.56;100.00;101771.66;4981387;28;20481;-74
2023/09/28 03:32:37;;;;;;;6.90;4.77;;;;;;;16.94;100.00;101863.81;4966615;28;20964;-74
2023/09/28 03:35:04;;;;;;;7.00;5.80;;;;;;;16.61;100.00;101820.63;4980330;28;20439;-74
2023/09/28 03:37:29;;;;;;;8.20;5.50;;;;;;;16.71;100.00;101848.06;4966134;28;20547;-74
2023/09/28 03:39:58;;;;;;;7.40;4.97;;;;;;;16.62;100.00;101852.06;4965214;28;20944;-76
2023/09/28 03:42:23;;;;;;;8.37;5.20;;;;;;;16.61;100.00;101862.06;4967139;28;20214;-74
2023/09/28 03:44:49;;;;;;;7.83;5.67;;;;;;;16.70;100.00;101841.81;4969900;28;21046;-74
2023/09/28 03:47:14;;;;;;;9.00;5.40;;;;;;;16.90;100.00;101862.59;4969235;28;20638;-74
2023/09/28 03:49:39;;;;;;;7.43;6.00;;;;;;;16.47;100.00;101793.56;4968069;28;20218;-74
2023/09/28 03:52:05;;;;;;;9.17;5.47;;;;;;;16.53;100.00;101781.06;4966052;28;20221;-74
2023/09/28 03:54:30;;;;;;;6.83;5.10;;;;;;;17.05;100.00;101851.47;4964870;28;20206;-74
2023/09/28 03:56:55;;;;;;;6.97;5.47;;;;;;;17.09;100.00;101801.19;4964847;28;20273;-74
2023/09/28 03:59:21;;;;;;;7.27;5.47;;;;;;;17.03;100.00;101766.84;4967864;28;20563;-74
2023/09/28 04:01:48;;;;;;;9.40;5.43;;;;;;;17.00;100.00;101764.56;4963425;28;20217;-74
2023/09/28 04:04:13;;;;;;;9.13;5.60;;;;;;;16.43;100.00;101664.22;4964824;28;20201;-74
2023/09/28 04:06:39;;;;;;;9.47;5.60;;;;;;;16.30;100.00;101611.00;4967728;28;20484;-74
2023/09/28 04:09:07;;;;;;;6.60;5.07;;;;;;;16.84;100.00;101669.22;4966843;28;20182;-74
2023/09/28 04:11:34;;;;;;;6.90;5.70;;;;;;;16.03;100.00;101504.81;4965223;28;20296;-74
2023/09/28 04:14:01;;;;;;;10.00;5.37;;;;;;;16.59;100.00;101568.94;4967332;28;20452;-73
2023/09/28 04:16:27;;;;;;;7.30;5.43;;;;;;;16.42;100.00;101521.78;4965964;28;20540;-74
2023/09/28 04:18:52;;;;;;;11.47;4.97;;;;;;;16.70;100.00;101524.06;4963889;28;20537;-74
2023/09/28 04:21:17;;;;;;;8.63;5.73;;;;;;;16.75;100.00;101520.66;4965821;28;20613;-74
2023/09/28 04:23:43;;;;;;;8.07;5.47;;;;;;;16.78;100.00;101518.38;4964617;28;20218;-74
2023/09/28 04:26:08;;;;;;;7.20;4.67;;;;;;;16.61;100.00;101485.59;4965265;28;20190;-74
2023/09/28 04:28:34;;;;;;;8.13;5.03;;;;;;;16.05;100.00;101402.56;4966950;28;20681;-74
2023/09/28 04:30:59;;;;;;;8.33;5.40;;;;;;;16.13;100.00;101405.00;4962766;28;20706;-74
2023/09/28 04:33:25;;;;;;;8.63;5.63;;;;;;;16.90;100.00;101500.31;4960738;28;21309;-74
2023/09/28 04:35:50;;;;;;;8.90;5.60;;;;;;;16.86;100.00;101482.84;4966201;28;20198;-74
2023/09/28 04:38:16;;;;;;;9.40;5.40;;;;;;;16.86;100.00;101476.59;4963762;28;20003;-74
2023/09/28 04:40:42;;;;;;;8.77;5.30;;;;;;;16.44;100.00;101404.09;4964624;28;20201;-74
2023/09/28 04:43:08;;;;;;;8.53;5.57;;;;;;;16.49;100.00;101395.31;4966206;28;20480;-74
2023/09/28 04:45:34;;;;;;;8.20;5.27;;;;;;;16.60;100.00;101391.00;4964690;28;20436;-75
2023/09/28 04:48:00;;;;;;;7.23;5.10;;;;;;;16.01;100.00;101306.69;4963967;28;20448;-74
2023/09/28 04:50:26;;;;;;;8.33;5.17;;;;;;;16.83;100.00;101374.94;4964363;28;20230;-74
2023/09/28 04:52:51;;;;;;;7.60;4.70;;;;;;;16.07;100.00;101264.38;4966443;28;20219;-75
2023/09/28 04:55:17;;;;;;;7.73;5.10;;;;;;;16.52;100.00;101347.97;4964897;28;20182;-74
2023/09/28 04:58:04;;;;;;;6.80;4.47;;;;;;;16.75;100.00;101379.78;4965066;28;20281;-74
2023/09/28 05:00:30;;;;;;;8.70;6.00;;;;;;;15.92;100.00;101254.75;4965762;28;20186;-74
2023/09/28 05:02:55;;;;;;;9.00;4.87;;;;;;;15.89;100.00;101257.91;4982805;28;20476;-74
2023/09/28 05:05:21;;;;;;;8.00;5.83;;;;;;;15.93;100.00;101248.25;4983071;28;21108;-74
2023/09/28 05:07:46;;;;;;;7.37;4.97;;;;;;;15.94;100.00;101249.09;4983049;28;20190;-76
2023/09/28 05:10:12;;;;;;;9.80;5.10;;;;;;;16.20;100.00;101294.81;4966506;28;20211;-76
2023/09/28 05:12:38;;;;;;;6.03;4.53;;;;;;;15.86;100.00;101236.69;4966510;28;20210;-74
2023/09/28 05:15:04;;;;;;;8.60;6.00;;;;;;;16.45;100.00;101326.41;4965718;28;20187;-74
2023/09/28 05:17:31;;;;;;;7.97;5.50;;;;;;;15.67;100.00;101206.06;4966851;28;20489;-74
2023/09/28 05:19:56;;;;;;;8.20;5.53;;;;;;;16.35;100.00;101301.75;4984546;28;20425;-75
2023/09/28 05:22:22;;;;;;;8.80;5.83;;;;;;;16.11;100.00;101265.56;4968484;28;20461;-74
2023/09/28 05:24:47;;;;;;;7.40;5.90;;;;;;;15.99;100.00;101216.78;4963081;28;20627;-74
2023/09/28 05:27:13;;;;;;;12.73;5.47;;;;;;;16.15;100.00;101253.25;4968375;28;20192;-74
2023/09/28 05:29:39;;;;;;;9.30;6.10;;;;;;;16.31;100.00;101293.22;4969572;28;20559;-74
2023/09/28 05:32:05;;;;;;;8.00;4.63;;;;;;;15.93;100.00;101228.50;4967654;28;20296;-75
2023/09/28 05:34:31;;;;;;;7.60;5.70;;;;;;;16.17;100.00;101279.03;4967414;28;20533;-74
2023/09/28 05:36:56;;;;;;;8.20;5.77;;;;;;;16.14;100.00;101265.09;4968542;28;20529;-74
2023/09/28 05:39:21;;;;;;;8.77;5.90;;;;;;;15.55;100.00;101161.88;4968962;28;20604;-74
2023/09/28 05:41:47;;;;;;;10.13;5.83;;;;;;;15.85;100.00;101207.16;4964005;28;20881;-74
2023/09/28 05:44:14;;;;;;;9.87;5.67;;;;;;;16.27;100.00;101248.72;4967766;28;20191;-76
2023/09/28 05:46:39;;;;;;;8.97;5.43;;;;;;;15.66;100.00;101155.75;4967639;28;20194;-74
2023/09/28 05:49:05;;;;;;;7.33;5.53;;;;;;;15.41;100.00;101090.91;4967966;28;20520;-74
2023/09/28 05:51:31;;;;;;;8.30;5.90;;;;;;;15.58;100.00;101091.97;4964150;28;20214;-76
2023/09/28 05:53:56;;;;;;;7.60;5.70;;;;;;;16.15;100.00;101204.53;4966135;28;19922;-74
2023/09/28 05:56:22;;;;;;;9.33;5.27;;;;;;;15.50;100.00;101107.66;4968590;28;20700;-74
2023/09/28 05:58:48;;;;;;;9.00;5.77;;;;;;;16.28;100.00;101202.47;4968830;28;20744;-76
2023/09/28 06:01:16;;;;;;;8.40;5.37;;;;;;;15.69;100.00;101103.13;4966641;28;20213;-75
2023/09/28 06:03:42;;;;;;;8.70;6.30;;;;;;;15.80;100.00;101119.41;4967295;28;20584;-75
2023/09/28 06:06:18;;;;;;;7.93;4.53;;;;;;;16.20;100.00;101186.56;4966356;28;20441;-75
2023/09/28 06:08:46;;;;;;;7.87;5.13;;;;;;;15.35;100.00;101033.19;4968677;28;20433;-76
2023/09/28 06:11:16;;;;;;;7.97;5.07;;;;;;;16.24;100.00;101176.09;4966948;28;20469;-74
2023/09/28 06:13:43;;;;;;;11.80;6.27;;;;;;;15.94;100.00;101205.81;4968926;28;20820;-74
2023/09/28 06:16:11;;;;;;;8.63;4.90;;;;;;;16.50;100.00;101311.13;4968017;28;20846;-76
2023/09/28 06:18:37;;;;;;;9.07;5.20;;;;;;;16.51;100.00;101295.72;4976227;28;20438;-75
2023/09/28 06:21:03;;;;;;;11.83;6.60;;;;;;;16.45;100.00;101299.31;4968203;28;20986;-75
2023/09/28 06:23:28;;;;;;;7.13;5.10;;;;;;;15.85;100.00;101191.75;4969002;28;20469;-75
2023/09/28 06:25:53;;;;;;;9.70;5.70;;;;;;;16.30;100.00;101282.66;4964639;28;20194;-75
2023/09/28 06:28:21;;;;;;;11.00;6.00;;;;;;;15.74;100.00;101200.63;4967161;28;20693;-76
2023/09/28 06:30:47;;;;;;;8.40;5.50;;;;;;;16.50;100.00;101330.09;4968071;28;20241;-76
2023/09/28 06:33:13;;;;;;;10.30;5.70;;;;;;;16.50;100.00;101326.56;4966813;28;20469;-77
2023/09/28 06:35:38;;;;;;;8.00;5.40;;;;;;;16.25;100.00;101292.25;4968062;28;20936;-76
2023/09/28 06:38:04;;;;;;;8.73;5.23;;;;;;;15.75;100.00;101215.81;4966371;28;20442;-77
2023/09/28 06:40:29;;;;;;;9.80;5.00;;;;;;;15.16;100.00;101166.63;4966396;28;20198;-76
2023/09/28 06:42:55;;;;;;;10.60;5.60;;;;;;;16.47;100.00;101311.59;4964880;28;20214;-77
2023/09/28 06:45:20;;;;;;;11.80;5.67;;;;;;;16.46;100.00;101312.66;4971320;28;20190;-76
2023/09/28 06:47:45;;;;;;;9.63;5.83;;;;;;;16.09;100.00;101237.91;4971907;28;20604;-77
2023/09/28 06:50:11;;;;;;;7.30;5.27;;;;;;;16.12;100.00;101246.41;4973892;28;20260;-77
2023/09/28 06:52:37;;;;;;;7.80;4.87;;;;;;;16.10;100.00;101236.84;4974471;28;20206;-76
2023/09/28 06:55:04;;;;;;;9.03;5.10;;;;;;;16.31;100.00;101285.09;4972947;28;20210;-76
2023/09/28 06:57:30;;;;;;;7.57;4.90;;;;;;;15.84;100.00;101206.34;4972965;28;20445;-76
2023/09/28 06:59:55;;;;;;;8.53;4.87;;;;;;;15.99;100.00;101233.00;4972035;28;20510;-77
2023/09/28 07:02:21;;;;;;;10.53;4.70;;;;;;;16.00;100.00;101251.75;4974921;28;20465;-76
2023/09/28 07:04:47;;;;;;;7.20;4.90;;;;;;;16.54;100.00;101332.34;4974630;28;20236;-76
2023/09/28 07:07:16;;;;;;;9.50;4.80;;;;;;;16.07;100.00;101277.91;4974378;28;20194;-76
2023/09/28 07:09:43;;;;;;;9.30;4.50;;;;;;;16.08;100.00;101272.25;4973908;28;20689;-76
2023/09/28 07:12:10;;;;;;;10.27;5.13;;;;;;;16.17;100.00;101294.44;4974414;28;20473;-76
2023/09/28 07:14:36;;;;;;;8.10;4.20;;;;;;;15.99;100.00;101239.25;4972205;28;20446;-76
2023/09/28 07:17:02;;;;;;;12.37;4.53;;;;;;;16.61;100.00;101358.31;4972055;28;20461;-76
2023/09/28 07:19:27;;;;;;;7.43;3.70;;;;;;;16.20;100.00;101365.19;4975275;28;20269;-76
2023/09/28 07:21:53;;;;;;;11.33;4.33;;;;;;;16.99;100.00;101473.75;4973829;28;20229;-77
2023/09/28 07:24:20;;;;;;;9.70;3.90;;;;;;;16.40;100.00;101412.88;4972675;28;20276;-76
2023/09/28 07:26:51;;;;;;;10.23;3.60;;;;;;;16.41;100.00;101447.88;4972097;28;20879;-77
2023/09/28 07:29:16;;;;;;;8.20;3.23;;;;;;;16.68;100.00;101547.81;4971809;28;20450;-76
2023/09/28 07:31:41;;;;;;;11.57;3.13;;;;;;;16.54;100.00;101581.47;4972647;28;20854;-74
2023/09/28 07:34:07;;;;;;;12.17;4.07;;;;;;;16.62;100.00;101659.75;4973914;28;20188;-76
2023/09/28 07:36:33;;;;;;;13.60;4.23;;;;;;;16.59;100.00;101703.53;4971892;28;20564;-77
2023/09/28 07:38:58;;;;;;;19.13;4.17;;;;;;;17.01;100.00;101828.56;4971398;28;20205;-76
2023/09/28 07:41:23;;;;;;;11.30;3.40;;;;;;;16.34;100.00;101782.78;4974308;28;20190;-76
2023/09/28 07:43:49;;;;;;;14.87;3.67;;;;;;;17.28;100.00;102052.41;4973809;28;20649;-77
2023/09/28 07:46:15;;;;;;;10.43;3.27;;;;;;;16.80;100.00;102012.06;4971776;28;20240;-77
2023/09/28 07:48:40;;;;;;;9.30;2.83;;;;;;;17.44;100.00;102147.88;4972882;28;20201;-77
2023/09/28 07:51:06;;;;;;;13.77;3.43;;;;;;;15.63;100.00;101918.78;4974593;28;20318;-77
2023/09/28 07:53:31;;;;;;;11.93;3.77;;;;;;;16.99;100.00;102121.50;4975066;28;20209;-77
2023/09/28 07:55:57;;;;;;;12.10;3.50;;;;;;;16.69;100.00;102085.81;4970742;28;20186;-77
2023/09/28 07:58:23;;;;;;;12.97;3.70;;;;;;;16.85;100.00;102139.63;4967782;28;20607;-76
2023/09/28 08:00:49;;;;;;;14.10;4.50;;;;;;;17.47;100.00;102231.56;4968651;28;20298;-77
2023/09/28 08:03:15;;;;;;;17.40;4.40;;;;;;;17.64;100.00;102289.75;4970093;28;20202;-77
2023/09/28 08:05:40;;;;;;;17.30;3.93;;;;;;;17.73;100.00;102299.34;4971288;28;20445;-77
2023/09/28 08:08:06;;;;;;;15.33;3.53;;;;;;;17.70;100.00;102301.63;4970753;28;20253;-76
2023/09/28 08:10:33;;;;;;;16.53;3.93;;;;;;;17.08;100.00;102198.00;4968811;28;20306;-76
2023/09/28 08:12:59;;;;;;;14.70;3.73;;;;;;;16.93;100.00;102180.06;4983263;28;20221;-76
2023/09/28 08:15:25;;;;;;;20.63;4.10;;;;;;;17.12;100.00;102226.34;4971170;28;21240;-76
2023/09/28 08:17:51;;;;;;;16.37;3.73;;;;;;;17.67;100.00;102310.19;4970162;28;20453;-76
2023/09/28 08:20:16;;;;;;;16.43;4.27;;;;;;;17.59;100.00;102276.00;4966635;28;20198;-76
2023/09/28 08:22:42;;;;;;;16.50;3.63;;;;;;;18.03;100.00;102337.75;4965961;28;20225;-76
2023/09/28 08:25:08;;;;;;;16.27;3.73;;;;;;;17.88;100.00;102345.31;4968203;28;20507;-77
2023/09/28 08:27:33;;;;;;;21.50;4.50;;;;;;;17.97;100.00;102345.91;4970926;28;20198;-77
2023/09/28 08:29:59;;;;;;;10.70;3.60;;;;;;;17.47;100.00;102242.41;4968662;28;20246;-76
2023/09/28 08:32:26;;;;;;;20.43;4.10;;;;;;;18.04;100.00;102373.88;4970772;28;20216;-76
2023/09/28 08:34:51;;;;;;;14.83;3.60;;;;;;;18.29;100.00;102377.59;4969475;28;20210;-77
2023/09/28 08:37:17;;;;;;;13.23;4.43;;;;;;;17.70;100.00;102283.47;4966918;28;20453;-76
2023/09/28 08:39:43;;;;;;;12.13;3.40;;;;;;;17.45;100.00;102201.94;4968560;28;20194;-76
2023/09/28 08:42:13;;;;;;;14.67;3.70;;;;;;;18.16;100.00;102317.88;4969285;28;20214;-76
2023/09/28 08:44:40;;;;;;;12.07;3.50;;;;;;;17.59;100.00;102198.16;4968642;28;20438;-76
2023/09/28 08:47:16;;;;;;;9.63;3.60;;;;;;;17.88;100.00;102184.31;4969922;28;21579;-76
2023/09/28 08:49:47;;;;;;;15.47;4.43;;;;;;;17.72;100.00;102215.44;4969568;28;20491;-76
2023/09/28 08:52:14;;;;;;;15.60;4.00;;;;;;;18.28;100.00;102327.03;4968131;28;20493;-76
2023/09/28 08:54:41;;;;;;;21.17;4.10;;;;;;;15.77;100.00;101933.19;4976575;23;20495;-76
2023/09/28 08:57:08;;;;;;;13.17;3.57;;;;;;;17.30;100.00;102212.16;4968196;28;20453;-76
2023/09/28 08:59:35;;;;;;;19.20;4.30;;;;;;;17.28;100.00;102225.94;4969783;28;20446;-76
2023/09/28 09:02:03;;;;;;;13.57;3.50;;;;;;;16.90;100.00;102133.59;4969476;28;20465;-76
2023/09/28 09:04:28;;;;;;;13.30;3.37;;;;;;;15.92;100.00;101947.34;4968476;28;20450;-76
2023/09/28 09:06:54;;;;;;;18.13;3.93;;;;;;;16.50;100.00;102055.00;4969497;28;20433;-76
2023/09/28 09:09:22;;;;;;;21.70;4.37;;;;;;;16.63;100.00;102086.66;4970389;28;20182;-75
2023/09/28 09:11:52;;;;;;;14.57;3.50;;;;;;;15.95;100.00;101930.69;4966384;28;20677;-76
2023/09/28 09:14:20;;;;;;;9.90;2.80;;;;;;;16.39;100.00;101971.69;4968040;28;20437;-76
2023/09/28 09:16:46;;;;;;;13.93;3.53;;;;;;;17.68;100.00;102185.19;4970174;28;20434;-77
2023/09/28 09:19:14;;;;;;;14.70;3.37;;;;;;;17.02;100.00;102020.78;4984805;28;20532;-76
2023/09/28 09:21:43;;;;;;;10.00;2.80;;;;;;;17.05;100.00;102020.34;4973338;28;20213;-76
2023/09/28 09:24:14;;;;;;;12.70;3.20;;;;;;;16.66;100.00;101913.72;4974542;28;20442;-76
2023/09/28 09:26:41;;;;;;;16.23;3.20;;;;;;;17.05;100.00;101946.34;4969495;28;20441;-76
2023/09/28 09:29:07;;;;;;;14.23;4.00;;;;;;;16.42;100.00;101833.16;4976686;28;20433;-76
2023/09/28 09:31:36;;;;;;;15.47;3.70;;;;;;;16.51;100.00;101793.97;4965923;28;20473;-76
2023/09/28 09:34:09;;;;;;;12.10;3.50;;;;;;;16.60;100.00;101814.34;4969898;28;20948;-76
2023/09/28 09:36:34;;;;;;;12.47;3.40;;;;;;;17.43;100.00;101931.97;4984606;28;20453;-75
2023/09/28 09:39:00;;;;;;;18.73;4.00;;;;;;;17.75;100.00;102016.91;4967566;28;20442;-76
2023/09/28 09:41:26;;;;;;;11.00;3.07;;;;;;;16.88;100.00;101851.97;4974710;28;20183;-76
2023/09/28 09:43:52;;;;;;;10.13;2.60;;;;;;;17.11;100.00;101878.53;4969244;28;20194;-75
2023/09/28 09:46:17;;;;;;;12.63;3.40;;;;;;;19.03;100.00;102151.63;4967718;28;20441;-76
2023/09/28 09:48:44;;;;;;;12.93;2.83;;;;;;;17.08;100.00;101835.59;4967239;28;20198;-76
2023/09/28 09:51:15;;;;;;;10.43;2.63;;;;;;;18.06;100.00;102018.84;4967729;28;21194;-76
2023/09/28 09:53:44;;;;;;;8.57;2.50;;;;;;;19.12;100.00;102151.13;4968493;28;20944;-76
2023/09/28 09:56:11;;;;;;;9.80;2.87;;;;;;;18.12;100.00;102034.25;4966965;28;20929;-76
2023/09/28 09:58:40;;;;;;;14.33;3.07;;;;;;;18.10;100.00;102054.53;4967973;28;20435;-76
2023/09/28 10:01:16;;;;;;;13.80;3.57;;;;;;;18.43;100.00;102073.31;4963301;28;20963;-76
2023/09/28 10:03:47;;;;;;;17.87;4.03;;;;;;;18.03;100.00;102006.53;4964727;28;20469;-76
2023/09/28 10:06:16;;;;;;;15.37;3.23;;;;;;;17.93;100.00;102017.03;4965202;28;20446;-75
2023/09/28 10:08:42;;;;;;;16.47;4.00;;;;;;;18.12;100.00;102012.53;4966792;28;20460;-76
2023/09/28 10:11:10;;;;;;;12.53;2.90;;;;;;;17.94;100.00;101988.03;4965480;28;20485;-75
2023/09/28 10:13:36;;;;;;;12.60;3.20;;;;;;;18.81;100.00;102113.97;4980482;28;20473;-76
2023/09/28 10:16:03;;;;;;;12.17;2.83;;;;;;;17.97;100.00;101998.44;4967727;28;20449;-75
2023/09/28 10:18:30;;;;;;;10.70;3.10;;;;;;;17.90;100.00;101965.91;4967801;28;20486;-75
2023/09/28 10:21:02;;;;;;;14.87;3.40;;;;;;;18.28;100.00;102031.00;4964249;28;20952;-75
2023/09/28 10:23:31;;;;;;;13.53;3.80;;;;;;;18.83;100.00;102117.28;4966855;28;20498;-76
2023/09/28 10:26:11;;;;;;;14.60;3.67;;;;;;;18.99;100.00;102088.72;4964802;28;20430;-76
2023/09/28 10:29:06;;;;;;;19.10;4.07;;;;;;;19.03;100.00;102094.53;4968259;28;20453;-76
2023/09/28 10:31:34;;;;;;;13.13;4.27;;;;;;;18.92;100.00;102109.69;4981947;28;20469;-75
2023/09/28 10:34:01;;;;;;;19.63;4.67;;;;;;;18.82;100.00;102120.22;4963673;28;20469;-75
2023/09/28 10:36:27;;;;;;;21.37;4.97;;;;;;;18.16;100.00;102059.06;4967346;28;20426;-75
2023/09/28 10:39:19;;;;;;;16.80;4.33;;;;;;;18.66;100.00;102119.72;4966857;28;20430;-76
2023/09/28 10:41:49;;;;;;;19.30;4.57;;;;;;;18.86;100.00;102167.66;4966385;28;20470;-76
2023/09/28 10:44:20;;;;;;;18.23;4.60;;;;;;;17.99;100.00;102056.03;4964077;28;20852;-76
2023/09/28 10:46:50;;;;;;;17.63;4.17;;;;;;;19.05;100.00;102146.81;4967707;28;20434;-75
2023/09/28 10:49:27;;;;;;;18.30;4.40;;;;;;;19.12;100.00;102126.66;4962790;28;20449;-76
2023/09/28 10:51:55;;;;;;;16.60;4.43;;;;;;;18.26;100.00;101937.22;4971702;28;20563;-76
2023/09/28 10:54:21;;;;;;;16.23;4.13;;;;;;;18.52;100.00;101945.09;4979300;28;20460;-75
2023/09/28 10:56:50;;;;;;;17.40;4.53;;;;;;;18.97;100.00;102082.66;4965571;28;20449;-75
2023/09/28 10:59:18;;;;;;;19.20;4.73;;;;;;;19.13;100.00;102136.47;4971086;28;20186;-76
2023/09/28 11:01:48;;;;;;;18.73;4.97;;;;;;;18.87;100.00;102140.25;4967100;28;20457;-75
2023/09/28 11:04:15;;;;;;;15.90;4.27;;;;;;;19.02;100.00;102191.59;4982423;28;24128;-76
2023/09/28 11:06:44;;;;;;;16.70;4.80;;;;;;;18.68;100.00;102182.81;4967519;28;20930;-76
2023/09/28 11:09:11;;;;;;;15.93;4.00;;;;;;;18.17;100.00;102088.72;4966689;28;20453;-75
2023/09/28 11:11:39;;;;;;;16.83;4.27;;;;;;;17.94;100.00;102047.75;4965707;28;20484;-75
2023/09/28 11:14:05;;;;;;;15.17;4.00;;;;;;;18.43;100.00;102048.84;4966655;28;20453;-76